Time;durP1;ratioP1;P1;durP2;ratioP2;P2;SDS_P1;SDS_P2;PMS_P1;PMS_P2;Temp;Humidity;BMP_temperature;BMP_pressure;BME280_temperature;BME280_humidity;BME280_pressure;Samples;Min_cycle;Max_cycle;Signal;HPM_P1;HPM_P2
2023/06/18 00:00:55;;;;;;;7.00;4.80;;;486.90;2380.80;;;;;;4879135;29;20033;-74
2023/06/18 00:03:20;;;;;;;6.53;4.28;;;486.80;2380.80;;;;;;4879317;29;20408;-72
2023/06/18 00:05:46;;;;;;;11.32;4.68;;;486.90;2380.80;;;;;;4879112;29;20025;-72
2023/06/18 00:08:12;;;;;;;12.70;4.47;;;486.90;2380.80;;;;;;4878843;29;20125;-73
2023/06/18 00:13:35;;;;;;;8.13;4.53;;;486.80;2380.80;;;;;;4976515;24;20159;-71
2023/06/18 00:16:01;;;;;;;7.53;4.40;;;486.80;2380.80;;;;;;4878945;29;20538;-71
2023/06/18 00:18:27;;;;;;;9.48;5.00;;;486.80;2380.80;;;;;;4875876;29;20061;-71
2023/06/18 00:20:53;;;;;;;8.55;4.68;;;486.80;2380.80;;;;;;4896307;29;20029;-75
2023/06/18 00:23:18;;;;;;;8.07;5.28;;;486.70;2380.80;;;;;;4879795;29;20052;-71
2023/06/18 00:25:44;;;;;;;9.88;5.18;;;486.70;2380.80;;;;;;4896769;29;20068;-72
2023/06/18 00:28:11;;;;;;;9.60;4.43;;;486.70;2380.80;;;;;;4900546;29;20052;-72
2023/06/18 00:30:37;;;;;;;5.68;4.40;;;486.70;2380.80;;;;;;4899827;29;20025;-71
2023/06/18 00:33:03;;;;;;;8.00;4.75;;;486.70;2380.80;;;;;;4900226;29;20033;-70
2023/06/18 00:35:30;;;;;;;7.35;4.85;;;486.60;2380.80;;;;;;4900299;29;20099;-73
2023/06/18 00:37:55;;;;;;;8.88;4.43;;;486.50;2380.80;;;;;;4899800;29;20092;-71
2023/06/18 00:40:21;;;;;;;7.68;4.53;;;486.50;2380.80;;;;;;4900101;29;20028;-71
2023/06/18 00:42:48;;;;;;;5.60;4.40;;;486.60;2380.80;;;;;;4899527;29;20059;-72
2023/06/18 00:45:14;;;;;;;6.82;4.63;;;486.60;2380.80;;;;;;4900073;29;20037;-76
2023/06/18 00:47:42;;;;;;;5.65;4.00;;;486.50;2380.80;;;;;;4882461;29;20068;-73
2023/06/18 00:50:08;;;;;;;6.47;4.50;;;486.50;2380.80;;;;;;4899864;29;20021;-70
2023/06/18 00:52:36;;;;;;;6.53;3.88;;;486.40;2380.80;;;;;;4899927;29;20029;-70
2023/06/18 00:55:03;;;;;;;6.68;4.20;;;486.40;2380.80;;;;;;4899837;29;20025;-71
2023/06/18 00:57:30;;;;;;;8.25;4.57;;;486.40;2380.80;;;;;;4899455;29;20109;-72
2023/06/18 00:59:57;;;;;;;8.75;4.53;;;486.40;2380.80;;;;;;4899412;29;20044;-70
2023/06/18 01:02:25;;;;;;;7.45;4.20;;;461.70;2380.80;;;;;;4899695;29;20031;-70
2023/06/18 01:04:55;;;;;;;8.07;4.28;;;486.40;2380.80;;;;;;4899438;29;20043;-71
2023/06/18 01:07:22;;;;;;;5.68;3.92;;;461.70;2380.80;;;;;;4899627;29;20017;-71
2023/06/18 01:09:53;;;;;;;6.78;4.60;;;461.70;2380.80;;;;;;4899279;29;20029;-71
2023/06/18 01:12:27;;;;;;;6.80;4.63;;;486.40;2380.80;;;;;;4899254;29;20096;-71
2023/06/18 01:14:58;;;;;;;14.60;4.72;;;461.70;2380.80;;;;;;4899550;29;20047;-71
2023/06/18 01:17:29;;;;;;;9.85;4.65;;;461.60;2380.80;;;;;;4899350;29;20364;-71
2023/06/18 01:20:00;;;;;;;6.45;4.72;;;461.70;2380.80;;;;;;4899362;29;20037;-71
2023/06/18 01:22:52;;;;;;;8.77;4.43;;;461.70;2380.80;;;;;;4899016;29;20032;-72
2023/06/18 01:25:18;;;;;;;6.93;4.35;;;461.60;2380.80;;;;;;4889088;29;20493;-72
2023/06/18 01:27:47;;;;;;;9.63;4.47;;;461.50;2380.80;;;;;;4898997;29;20028;-75
2023/06/18 01:30:14;;;;;;;7.35;4.97;;;461.60;2380.80;;;;;;4899081;29;20486;-71
2023/06/18 01:32:40;;;;;;;11.35;5.05;;;461.40;2380.80;;;;;;4882165;29;20029;-74
2023/06/18 01:35:08;;;;;;;9.00;4.50;;;461.50;2380.80;;;;;;4899038;29;20036;-71
2023/06/18 01:37:40;;;;;;;7.10;4.38;;;461.60;2380.80;;;;;;4898276;29;20028;-71
2023/06/18 01:40:30;;;;;;;7.45;4.50;;;461.50;2380.80;;;;;;4882301;29;20392;-70
2023/06/18 01:43:07;;;;;;;8.13;4.55;;;461.50;2380.80;;;;;;4866881;29;20029;-71
2023/06/18 01:45:50;;;;;;;6.55;5.28;;;461.50;2380.80;;;;;;4895080;29;20032;-71
2023/06/18 01:48:21;;;;;;;7.47;4.85;;;461.50;2380.80;;;;;;4881331;29;20205;-71
2023/06/18 01:50:49;;;;;;;7.95;4.90;;;461.50;2380.80;;;;;;4898506;29;20039;-72
2023/06/18 01:53:21;;;;;;;10.20;5.53;;;461.50;2380.80;;;;;;4898917;29;20048;-71
2023/06/18 01:55:50;;;;;;;11.93;5.28;;;461.50;2380.80;;;;;;4898849;29;20067;-71
2023/06/18 01:58:16;;;;;;;15.50;5.03;;;461.40;2380.80;;;;;;4881427;29;20067;-71
2023/06/18 02:00:42;;;;;;;8.70;4.40;;;461.40;2380.80;;;;;;4898634;29;20048;-70
2023/06/18 02:03:08;;;;;;;9.05;5.45;;;461.40;2380.80;;;;;;4898551;29;20555;-72
2023/06/18 02:05:34;;;;;;;9.02;4.30;;;461.40;2380.80;;;;;;4898744;29;20545;-71
2023/06/18 02:08:00;;;;;;;7.20;5.05;;;461.50;2380.80;;;;;;4898291;29;20020;-71
2023/06/18 02:10:26;;;;;;;7.97;4.57;;;;;;;;;;4898517;29;20028;-72
2023/06/18 02:12:52;;;;;;;8.50;5.05;;;461.40;2380.80;;;;;;4897637;29;20076;-71
2023/06/18 02:15:17;;;;;;;9.60;5.25;;;461.30;2380.80;;;;;;4898536;29;20067;-72
2023/06/18 02:17:44;;;;;;;9.00;5.07;;;461.30;2380.80;;;;;;4898077;29;20108;-70
2023/06/18 02:20:11;;;;;;;8.43;4.82;;;461.30;2380.80;;;;;;4881233;29;20071;-71
2023/06/18 02:22:38;;;;;;;7.95;4.82;;;461.20;2380.80;;;;;;4898277;29;20025;-71
2023/06/18 02:25:07;;;;;;;10.52;5.80;;;461.30;2380.80;;;;;;4898064;29;20103;-70
2023/06/18 02:27:32;;;;;;;10.40;5.05;;;461.30;2380.80;;;;;;4880758;29;20037;-71
2023/06/18 02:30:02;;;;;;;9.40;4.45;;;461.30;2380.80;;;;;;4898022;29;21307;-71
2023/06/18 02:32:31;;;;;;;11.50;5.20;;;461.20;2380.80;;;;;;4881166;29;20603;-71
2023/06/18 02:34:57;;;;;;;7.72;4.80;;;461.30;2380.80;;;;;;4897821;29;20475;-72
2023/06/18 02:37:23;;;;;;;6.50;4.75;;;;;;;;;;4897779;29;20029;-73
2023/06/18 02:39:49;;;;;;;9.13;4.97;;;461.20;2380.80;;;;;;4880866;29;20040;-71
2023/06/18 02:42:20;;;;;;;11.23;5.30;;;461.30;2380.80;;;;;;4897356;29;20025;-71
2023/06/18 02:44:46;;;;;;;8.88;5.25;;;461.30;2380.80;;;;;;4881091;29;20450;-71
2023/06/18 02:47:12;;;;;;;8.52;5.20;;;461.40;2380.80;;;;;;4897467;29;20056;-70
2023/06/18 02:49:38;;;;;;;11.10;4.82;;;461.40;2380.80;;;;;;4897908;29;20031;-74
2023/06/18 02:52:04;;;;;;;8.52;4.75;;;461.30;2380.80;;;;;;4897538;29;20029;-71
2023/06/18 02:54:30;;;;;;;8.73;5.32;;;461.20;2380.80;;;;;;4897780;29;20031;-71
2023/06/18 02:56:56;;;;;;;9.10;5.40;;;461.10;2380.80;;;;;;4897384;29;20028;-71
2023/06/18 02:59:21;;;;;;;10.15;5.25;;;461.10;2380.80;;;;;;4897378;29;20047;-75
2023/06/18 03:01:48;;;;;;;13.18;5.22;;;461.10;2380.80;;;;;;4880369;29;20402;-71
2023/06/18 03:04:14;;;;;;;14.18;6.05;;;461.00;2380.80;;;;;;4897476;29;20095;-71
2023/06/18 03:06:40;;;;;;;8.48;5.75;;;461.00;2380.80;;;;;;4897505;29;20039;-73
2023/06/18 03:09:06;;;;;;;9.57;5.32;;;460.90;2380.80;;;;;;4897562;29;20475;-71
2023/06/18 03:11:32;;;;;;;13.73;5.40;;;460.90;2380.80;;;;;;4880346;29;20039;-70
2023/06/18 03:13:57;;;;;;;10.40;4.53;;;461.00;2380.80;;;;;;4896880;29;20132;-71
2023/06/18 03:16:26;;;;;;;13.90;6.13;;;461.00;2380.80;;;;;;4897364;29;20022;-71
2023/06/18 03:18:52;;;;;;;10.60;5.68;;;461.00;2380.80;;;;;;4880200;29;20049;-72
2023/06/18 03:21:18;;;;;;;9.55;5.38;;;461.00;2380.80;;;;;;4880449;29;20434;-70
2023/06/18 03:23:43;;;;;;;12.25;5.95;;;461.00;2380.80;;;;;;4880110;29;20476;-71
2023/06/18 03:26:10;;;;;;;10.45;6.45;;;460.90;2380.80;;;;;;4909956;29;20017;-71
2023/06/18 03:28:36;;;;;;;13.00;5.80;;;461.00;2380.80;;;;;;4896718;29;20021;-72
2023/06/18 03:31:02;;;;;;;9.57;5.50;;;461.10;2380.80;;;;;;4896853;29;20107;-72
2023/06/18 03:33:31;;;;;;;9.40;6.15;;;461.10;2380.80;;;;;;4897049;29;20543;-71
2023/06/18 03:35:59;;;;;;;9.38;5.30;;;461.00;2380.80;;;;;;4896735;29;20036;-71
2023/06/18 03:38:27;;;;;;;9.93;6.40;;;461.00;2380.80;;;;;;4897052;29;20025;-73
2023/06/18 03:40:52;;;;;;;11.02;5.13;;;461.00;2380.80;;;;;;4896665;29;20028;-71
2023/06/18 03:43:18;;;;;;;9.35;6.07;;;461.00;2380.80;;;;;;4896847;29;20107;-70
2023/06/18 03:45:44;;;;;;;8.70;6.00;;;460.90;2380.80;;;;;;4896837;29;20383;-71
2023/06/18 03:48:10;;;;;;;9.10;6.03;;;460.90;2380.80;;;;;;4880024;29;20037;-71
2023/06/18 03:50:35;;;;;;;8.85;5.50;;;460.80;2380.80;;;;;;4896780;29;20456;-70
2023/06/18 03:53:02;;;;;;;12.90;6.15;;;460.80;2380.80;;;;;;4880088;29;20104;-72
2023/06/18 03:55:28;;;;;;;10.35;5.65;;;460.80;2380.80;;;;;;4896848;29;20021;-70
2023/06/18 03:57:54;;;;;;;14.32;6.05;;;460.80;2380.80;;;;;;4896503;29;20047;-71
2023/06/18 04:00:20;;;;;;;8.68;5.05;;;460.90;2380.80;;;;;;4896875;29;20368;-72
2023/06/18 04:02:46;;;;;;;8.82;5.80;;;461.00;2380.80;;;;;;4900628;29;20028;-70
2023/06/18 04:05:12;;;;;;;10.43;6.05;;;460.90;2380.80;;;;;;4900813;29;20111;-71
2023/06/18 04:07:38;;;;;;;7.75;5.50;;;461.00;2380.80;;;;;;4900660;29;20025;-70
2023/06/18 04:10:04;;;;;;;8.52;5.53;;;461.10;2380.80;;;;;;4900581;29;20383;-72
2023/06/18 04:12:30;;;;;;;8.55;5.80;;;461.10;2380.80;;;;;;4900219;29;20032;-71
2023/06/18 04:14:55;;;;;;;12.38;5.90;;;461.20;2380.80;;;;;;4883385;29;20040;-70
2023/06/18 04:17:21;;;;;;;10.73;6.35;;;461.20;2380.80;;;;;;4900218;29;20040;-71
2023/06/18 04:19:47;;;;;;;16.63;7.82;;;461.10;2380.80;;;;;;4900482;29;20040;-70
2023/06/18 04:22:12;;;;;;;12.90;5.78;;;461.20;2380.80;;;;;;4900420;29;20471;-71
2023/06/18 04:24:38;;;;;;;10.13;6.63;;;461.20;2380.80;;;;;;4900271;29;20165;-70
2023/06/18 04:27:04;;;;;;;8.93;6.15;;;461.30;2380.80;;;;;;4900516;29;20056;-72
2023/06/18 04:29:30;;;;;;;11.30;6.13;;;461.30;2380.80;;;;;;4899922;29;20031;-71
2023/06/18 04:31:56;;;;;;;10.45;6.18;;;461.20;2380.80;;;;;;4900235;29;20548;-71
2023/06/18 04:34:22;;;;;;;12.35;6.50;;;461.30;2380.80;;;;;;4900026;29;20028;-71
2023/06/18 04:36:47;;;;;;;11.32;7.20;;;461.40;2380.80;;;;;;4900282;29;20100;-71
2023/06/18 04:39:13;;;;;;;9.52;6.07;;;461.40;2380.80;;;;;;4899914;29;20051;-70
2023/06/18 04:41:39;;;;;;;21.70;7.13;;;461.40;2380.80;;;;;;4883193;29;20094;-71
2023/06/18 04:44:05;;;;;;;10.38;6.88;;;461.40;2380.80;;;;;;4899752;29;20035;-71
2023/06/18 04:46:32;;;;;;;8.23;6.43;;;461.40;2380.80;;;;;;4900005;29;20091;-72
2023/06/18 04:48:59;;;;;;;16.02;6.85;;;461.50;2380.80;;;;;;4899734;29;20028;-71
2023/06/18 04:51:25;;;;;;;10.10;6.78;;;461.50;2380.80;;;;;;4899790;29;20025;-71
2023/06/18 04:53:52;;;;;;;9.68;6.70;;;461.50;2380.80;;;;;;4899895;29;20531;-72
2023/06/18 04:56:18;;;;;;;18.52;7.93;;;461.60;2380.80;;;;;;4899652;29;20025;-74
2023/06/18 04:58:44;;;;;;;11.93;6.97;;;461.70;2380.80;;;;;;4899662;29;20095;-71
2023/06/18 05:01:09;;;;;;;10.65;6.68;;;486.40;2380.80;;;;;;4882454;29;20029;-70
2023/06/18 05:03:36;;;;;;;11.65;6.75;;;461.70;2380.80;;;;;;4899791;29;20024;-71
2023/06/18 05:06:02;;;;;;;11.88;6.93;;;461.70;2380.80;;;;;;4899392;29;20049;-70
2023/06/18 05:08:28;;;;;;;11.57;6.65;;;486.40;2380.80;;;;;;4899584;29;20041;-70
2023/06/18 05:10:54;;;;;;;12.48;6.93;;;486.50;2380.80;;;;;;4893949;29;20029;-71
2023/06/18 05:13:20;;;;;;;12.05;7.38;;;486.60;2380.80;;;;;;4884436;29;20057;-70
2023/06/18 05:15:46;;;;;;;11.02;7.68;;;486.70;2380.80;;;;;;4885902;29;20039;-71
2023/06/18 05:18:11;;;;;;;9.43;6.63;;;486.80;2380.80;;;;;;4896011;29;20108;-71
2023/06/18 05:20:37;;;;;;;11.02;6.75;;;486.80;2380.80;;;;;;4883962;29;20029;-70
2023/06/18 05:23:03;;;;;;;14.07;7.80;;;486.90;2380.80;;;;;;4887673;29;20029;-72
2023/06/18 05:25:28;;;;;;;11.73;7.93;;;487.00;2380.80;;;;;;4892121;29;20487;-71
2023/06/18 05:27:54;;;;;;;8.80;5.97;;;487.00;2380.80;;;;;;4891964;29;20108;-72
2023/06/18 05:30:20;;;;;;;10.15;7.22;;;487.00;2380.80;;;;;;4883777;29;20361;-74
2023/06/18 05:32:46;;;;;;;11.20;6.97;;;487.10;2380.80;;;;;;4886004;29;20858;-74
2023/06/18 05:35:11;;;;;;;10.02;6.78;;;487.10;2380.80;;;;;;4887747;29;20047;-74
2023/06/18 05:37:37;;;;;;;12.20;6.93;;;487.30;2380.80;;;;;;4888116;29;20097;-75
2023/06/18 05:40:03;;;;;;;11.15;6.88;;;487.30;2380.80;;;;;;4884490;29;20484;-71
2023/06/18 05:42:28;;;;;;;8.93;6.28;;;512.10;2380.80;;;;;;4892659;29;20029;-71
2023/06/18 05:44:54;;;;;;;10.80;6.10;;;512.20;2380.80;;;;;;4893111;29;20057;-75
2023/06/18 05:47:20;;;;;;;9.52;6.40;;;512.20;2380.80;;;;;;4890250;29;20028;-72
2023/06/18 05:49:46;;;;;;;11.18;6.47;;;512.30;2380.80;;;;;;4884611;29;20364;-72
2023/06/18 05:52:11;;;;;;;9.32;6.32;;;512.50;2380.80;;;;;;4884920;29;20032;-71
2023/06/18 05:54:38;;;;;;;8.93;6.18;;;512.60;2380.80;;;;;;4893239;29;20175;-72
2023/06/18 05:57:05;;;;;;;9.95;7.03;;;512.80;2380.80;;;;;;4888156;29;20024;-72
2023/06/18 05:59:30;;;;;;;11.18;6.63;;;512.90;2380.80;;;;;;4882654;29;20195;-72
2023/06/18 06:01:56;;;;;;;11.48;5.97;;;537.60;2406.40;;;;;;4885100;29;20487;-71
2023/06/18 06:04:23;;;;;;;7.90;6.10;;;537.60;2406.40;;;;;;4885116;29;20029;-72
2023/06/18 06:06:48;;;;;;;14.05;6.88;;;537.60;2406.40;;;;;;4868300;29;20064;-72
2023/06/18 06:09:14;;;;;;;9.75;6.45;;;537.70;2406.40;;;;;;4889315;29;20112;-71
2023/06/18 06:11:40;;;;;;;12.00;6.63;;;537.80;2406.40;;;;;;4892452;29;20369;-72
2023/06/18 06:14:05;;;;;;;9.98;6.95;;;537.90;2406.40;;;;;;4886852;29;20061;-71
2023/06/18 06:16:32;;;;;;;9.85;5.88;;;538.00;2406.40;;;;;;4875764;29;20029;-70
2023/06/18 06:18:58;;;;;;;9.82;6.78;;;538.00;2406.40;;;;;;4890696;29;20562;-71
2023/06/18 06:21:23;;;;;;;8.65;7.07;;;538.00;2406.40;;;;;;4886824;29;20032;-73
2023/06/18 06:23:50;;;;;;;10.25;6.95;;;538.20;2406.40;;;;;;4884183;29;20045;-71
2023/06/18 06:26:16;;;;;;;10.25;6.30;;;538.30;2406.40;;;;;;4889794;29;20428;-71
2023/06/18 06:28:41;;;;;;;8.27;5.82;;;538.30;2406.40;;;;;;4886784;29;20059;-72
2023/06/18 06:31:07;;;;;;;13.65;6.68;;;538.40;2406.40;;;;;;4871693;29;20444;-71
2023/06/18 06:33:33;;;;;;;9.70;6.88;;;538.50;2406.40;;;;;;4886254;29;20028;-71
2023/06/18 06:35:58;;;;;;;10.57;6.35;;;538.50;2406.40;;;;;;4884978;29;20033;-71
2023/06/18 06:38:24;;;;;;;11.43;7.32;;;563.20;2432.00;;;;;;4890766;29;20475;-70
2023/06/18 06:40:50;;;;;;;14.30;7.88;;;563.30;2432.00;;;;;;4889242;29;20040;-72
2023/06/18 06:43:15;;;;;;;9.70;6.55;;;563.40;2432.00;;;;;;4888675;29;20085;-72
2023/06/18 06:45:41;;;;;;;11.27;7.00;;;563.50;2432.00;;;;;;4886388;29;20037;-72
2023/06/18 06:48:07;;;;;;;12.00;7.60;;;563.60;2432.00;;;;;;4887695;29;20035;-72
2023/06/18 06:50:33;;;;;;;10.98;6.43;;;563.60;2432.00;;;;;;4896466;29;20032;-72
2023/06/18 06:52:58;;;;;;;12.35;6.28;;;563.70;2432.00;;;;;;4880670;29;20021;-74
2023/06/18 06:55:24;;;;;;;9.80;5.90;;;563.80;2432.00;;;;;;4884956;29;20029;-70
2023/06/18 06:57:50;;;;;;;8.48;6.18;;;563.70;2432.00;;;;;;4890324;29;20021;-72
2023/06/18 07:00:16;;;;;;;8.13;6.07;;;564.00;2432.00;;;;;;4883027;29;20037;-71
2023/06/18 07:02:41;;;;;;;9.38;6.50;;;564.10;2432.00;;;;;;4886052;29;20627;-71
2023/06/18 07:05:08;;;;;;;9.13;6.53;;;588.80;2432.00;;;;;;4887409;29;20032;-73
2023/06/18 07:07:35;;;;;;;11.60;6.15;;;588.80;2432.00;;;;;;4868507;29;20036;-71
2023/06/18 07:10:01;;;;;;;8.02;6.18;;;588.90;2432.00;;;;;;4890945;29;20112;-71
2023/06/18 07:12:27;;;;;;;11.95;6.30;;;589.10;2432.00;;;;;;4883631;29;20475;-70
2023/06/18 07:14:53;;;;;;;8.05;5.40;;;589.10;2432.00;;;;;;4885023;29;20080;-72
2023/06/18 07:17:19;;;;;;;7.53;5.53;;;589.20;2432.00;;;;;;4867461;29;20487;-73
2023/06/18 07:19:44;;;;;;;11.68;6.63;;;589.30;2432.00;;;;;;4883988;29;20111;-72
2023/06/18 07:22:10;;;;;;;9.32;6.15;;;589.40;2432.00;;;;;;4881653;29;20108;-74
2023/06/18 07:24:36;;;;;;;9.77;5.88;;;589.60;2432.00;;;;;;4889162;29;20035;-73
2023/06/18 07:27:02;;;;;;;11.48;5.78;;;589.60;2380.80;;;;;;4883311;29;20027;-74
2023/06/18 07:29:27;;;;;;;13.23;6.20;;;589.70;2432.00;;;;;;4866923;29;20040;-73
2023/06/18 07:31:53;;;;;;;8.60;6.00;;;614.40;2329.60;;;;;;4886848;29;20033;-75
2023/06/18 07:34:19;;;;;;;8.32;5.95;;;614.50;2201.60;;;;;;4881636;29;20040;-73
2023/06/18 07:36:44;;;;;;;10.48;5.60;;;614.60;2278.40;;;;;;4889202;29;20055;-74
2023/06/18 07:39:10;;;;;;;9.40;6.55;;;614.70;2329.60;;;;;;4885413;29;20037;-74
2023/06/18 07:41:36;;;;;;;9.35;6.82;;;614.80;2278.40;;;;;;4880902;29;20436;-73
2023/06/18 07:44:02;;;;;;;8.00;5.80;;;614.80;2252.80;;;;;;4888447;29;20479;-73
2023/06/18 07:46:27;;;;;;;9.68;5.72;;;614.90;2304.00;;;;;;4883923;29;20033;-73
2023/06/18 07:48:53;;;;;;;10.40;7.70;;;615.00;2252.80;;;;;;4884201;29;20028;-72
2023/06/18 07:51:19;;;;;;;10.63;5.95;;;615.20;2252.80;;;;;;4888397;29;20025;-71
2023/06/18 07:53:45;;;;;;;15.43;10.05;;;615.30;2201.60;;;;;;4891793;29;20017;-73
2023/06/18 07:56:11;;;;;;;15.40;8.60;;;615.30;2073.60;;;;;;4889175;29;20032;-72
2023/06/18 07:58:37;;;;;;;12.60;8.43;;;615.30;2022.40;;;;;;4889444;29;20071;-73
2023/06/18 08:01:03;;;;;;;11.55;6.43;;;615.30;1971.20;;;;;;4882244;29;20472;-70
2023/06/18 08:03:28;;;;;;;10.82;7.03;;;615.30;1996.80;;;;;;4888580;29;20036;-71
2023/06/18 08:05:54;;;;;;;11.88;6.28;;;640.10;1971.20;;;;;;4887071;29;20025;-71
2023/06/18 08:08:20;;;;;;;17.58;8.48;;;640.10;1920.00;;;;;;4883706;29;20490;-72
2023/06/18 08:10:46;;;;;;;17.42;7.85;;;640.20;1894.40;;;;;;4881155;29;20025;-71
2023/06/18 08:13:12;;;;;;;11.02;6.47;;;640.10;1868.80;;;;;;4870515;29;20133;-71
2023/06/18 08:15:38;;;;;;;14.20;6.45;;;640.20;1894.40;;;;;;4884481;29;20036;-71
2023/06/18 08:18:03;;;;;;;12.07;7.13;;;640.20;1868.80;;;;;;4892060;29;20029;-69
2023/06/18 08:20:29;;;;;;;10.32;6.00;;;640.40;1868.80;;;;;;4869888;29;20048;-71
2023/06/18 08:22:55;;;;;;;20.05;9.18;;;640.30;1817.60;;;;;;4892385;29;20031;-73
2023/06/18 08:25:20;;;;;;;13.70;7.55;;;640.50;1868.80;;;;;;4888757;29;20115;-71
2023/06/18 08:27:46;;;;;;;21.00;11.20;;;640.50;1843.20;;;;;;4883675;29;20070;-72
2023/06/18 08:30:12;;;;;;;13.35;7.63;;;640.60;1817.60;;;;;;4883711;29;20463;-70
2023/06/18 08:32:38;;;;;;;27.80;16.10;;;640.60;1817.60;;;;;;4884825;29;20105;-71
2023/06/18 08:35:05;;;;;;;23.52;12.35;;;640.60;1817.60;;;;;;4888841;29;20459;-72
2023/06/18 08:37:31;;;;;;;11.70;7.00;;;640.70;1792.00;;;;;;4889605;29;20060;-71
2023/06/18 08:39:57;;;;;;;13.40;6.82;;;640.70;1740.80;;;;;;4890843;29;20451;-71
2023/06/18 08:42:23;;;;;;;8.25;5.82;;;640.80;1792.00;;;;;;4890967;29;20032;-72
2023/06/18 08:44:50;;;;;;;7.10;4.72;;;640.80;1715.20;;;;;;4885063;29;20399;-73
2023/06/18 08:47:17;;;;;;;7.65;4.20;;;640.80;1664.00;;;;;;4889424;29;20374;-71
2023/06/18 08:49:44;;;;;;;7.07;4.28;;;640.80;1715.20;;;;;;4890525;29;20059;-72
2023/06/18 08:52:11;;;;;;;5.97;4.28;;;640.90;1715.20;;;;;;4886832;29;20116;-74
2023/06/18 08:54:38;;;;;;;8.57;5.47;;;;;;;;;;4884512;29;20021;-71
2023/06/18 08:57:06;;;;;;;7.60;4.53;;;665.80;1689.60;;;;;;4891786;29;20484;-72
2023/06/18 08:59:33;;;;;;;7.70;4.78;;;665.80;1689.60;;;;;;4884842;29;20119;-71
2023/06/18 09:01:59;;;;;;;6.43;4.45;;;666.00;1689.60;;;;;;4886293;29;20029;-71
2023/06/18 09:04:26;;;;;;;8.27;4.70;;;666.00;1664.00;;;;;;4890475;29;20033;-72
2023/06/18 09:06:54;;;;;;;7.78;4.47;;;665.90;1638.40;;;;;;4884627;29;20183;-72
2023/06/18 09:09:20;;;;;;;9.55;4.63;;;665.90;1638.40;;;;;;4887215;29;20052;-73
2023/06/18 09:11:46;;;;;;;7.38;4.88;;;666.00;1638.40;;;;;;4894539;29;20044;-72
2023/06/18 09:14:15;;;;;;;7.47;3.92;;;666.00;1638.40;;;;;;4893651;29;20623;-72
2023/06/18 09:16:41;;;;;;;7.80;5.75;;;666.20;1715.20;;;;;;4890624;29;20468;-71
2023/06/18 09:19:07;;;;;;;7.82;5.38;;;666.20;1612.80;;;;;;4889788;29;20200;-71
2023/06/18 09:21:38;;;;;;;8.65;5.25;;;666.30;1612.80;;;;;;4887301;29;20608;-72
2023/06/18 09:24:07;;;;;;;7.82;5.03;;;666.30;1587.20;;;;;;4867343;29;20478;-72
2023/06/18 09:26:34;;;;;;;6.25;4.10;;;666.50;1664.00;;;;;;4892496;29;20471;-71
2023/06/18 09:29:05;;;;;;;7.05;4.35;;;691.20;1587.20;;;;;;4889364;29;20485;-71
2023/06/18 09:31:30;;;;;;;7.05;4.72;;;691.30;1612.80;;;;;;4889733;29;20081;-73
2023/06/18 09:33:56;;;;;;;6.25;4.22;;;691.30;1587.20;;;;;;4890603;29;20041;-72
2023/06/18 09:36:25;;;;;;;8.75;4.70;;;691.40;1561.60;;;;;;4872154;29;20040;-72
2023/06/18 09:38:53;;;;;;;7.53;4.63;;;691.60;1561.60;;;;;;4892929;29;20036;-72
2023/06/18 09:41:19;;;;;;;7.20;3.95;;;691.50;1459.20;;;;;;4893419;29;20486;-73
2023/06/18 09:43:48;;;;;;;5.05;4.25;;;691.60;1510.40;;;;;;4887958;29;20037;-70
2023/06/18 09:46:16;;;;;;;6.55;4.30;;;691.70;1459.20;;;;;;4887248;29;20033;-72
2023/06/18 09:48:46;;;;;;;6.85;4.45;;;691.80;1484.80;;;;;;4887724;29;20028;-71
2023/06/18 09:51:14;;;;;;;5.65;3.95;;;691.80;1484.80;;;;;;4889463;29;20024;-71
2023/06/18 09:53:40;;;;;;;8.98;4.50;;;691.90;1459.20;;;;;;4891116;29;20021;-70
2023/06/18 09:56:14;;;;;;;7.47;4.80;;;692.10;1484.80;;;;;;4885273;29;20033;-70
2023/06/18 09:58:42;;;;;;;5.60;4.07;;;716.80;1510.40;;;;;;4886433;29;20045;-71
2023/06/18 10:01:08;;;;;;;6.75;4.60;;;716.90;1459.20;;;;;;4901295;29;20025;-71
2023/06/18 10:03:34;;;;;;;7.18;4.55;;;717.10;1459.20;;;;;;4890497;29;20040;-71
2023/06/18 10:06:13;;;;;;;4.85;3.60;;;717.20;1536.00;;;;;;4883700;29;20036;-72
2023/06/18 10:08:51;;;;;;;8.27;4.45;;;717.30;1510.40;;;;;;4883695;29;20025;-71
2023/06/18 10:11:18;;;;;;;5.35;4.13;;;717.40;1510.40;;;;;;4892901;29;20399;-70
2023/06/18 10:13:57;;;;;;;7.57;4.38;;;717.50;1510.40;;;;;;4881504;29;20045;-70
2023/06/18 10:16:26;;;;;;;8.07;4.75;;;717.60;1433.60;;;;;;4890740;29;20032;-72
2023/06/18 10:18:59;;;;;;;10.80;5.05;;;717.50;1382.40;;;;;;4888077;29;20040;-71
2023/06/18 10:21:25;;;;;;;6.07;4.65;;;717.50;1408.00;;;;;;4891521;29;20032;-71
2023/06/18 10:23:58;;;;;;;8.10;4.53;;;717.50;1408.00;;;;;;4893346;29;20032;-72
2023/06/18 10:26:25;;;;;;;4.68;3.50;;;742.40;1433.60;;;;;;4889414;29;20029;-77
2023/06/18 10:28:51;;;;;;;5.60;4.25;;;742.40;1382.40;;;;;;4887600;29;20040;-73
2023/06/18 10:31:19;;;;;;;6.65;3.63;;;742.60;1408.00;;;;;;4883319;29;20033;-70
2023/06/18 10:33:47;;;;;;;10.18;4.25;;;742.60;1356.80;;;;;;4888213;29;20021;-71
2023/06/18 10:36:14;;;;;;;4.95;3.40;;;742.70;1382.40;;;;;;4887629;29;20077;-70
2023/06/18 10:38:41;;;;;;;7.65;4.03;;;742.80;1331.20;;;;;;4890198;29;20116;-71
2023/06/18 10:41:17;;;;;;;6.30;4.30;;;742.90;1356.80;;;;;;4888619;29;20033;-70
2023/06/18 10:43:42;;;;;;;4.72;3.85;;;742.90;1382.40;;;;;;4871868;29;20029;-71
2023/06/18 10:46:13;;;;;;;8.38;3.95;;;742.90;1331.20;;;;;;4881954;29;20122;-69
2023/06/18 10:48:39;;;;;;;4.07;3.03;;;743.00;1408.00;;;;;;4889722;29;20028;-70
2023/06/18 10:51:27;;;;;;;6.32;4.03;;;743.00;1331.20;;;;;;4883400;29;20053;-72
2023/06/18 10:54:20;;;;;;;5.18;3.83;;;743.00;1280.00;;;;;;4892611;29;20484;-72
2023/06/18 10:56:51;;;;;;;8.32;4.38;;;743.10;1356.80;;;;;;4886260;29;20531;-71
2023/06/18 10:59:35;;;;;;;7.07;4.53;;;743.10;1305.60;;;;;;4889836;29;20069;-70
2023/06/18 11:02:01;;;;;;;5.65;4.03;;;743.10;1305.60;;;;;;4883813;29;20502;-71
2023/06/18 11:04:31;;;;;;;6.30;4.10;;;743.20;1305.60;;;;;;4890666;29;20040;-72
2023/06/18 11:07:19;;;;;;;5.05;3.85;;;743.30;1280.00;;;;;;4887807;29;20029;-70
2023/06/18 11:09:57;;;;;;;7.18;3.55;;;743.30;1331.20;;;;;;4872190;29;20085;-72
2023/06/18 11:12:33;;;;;;;7.07;3.55;;;743.30;1331.20;;;;;;4889089;29;20017;-71
2023/06/18 11:15:16;;;;;;;4.97;3.75;;;768.00;1280.00;;;;;;4883729;29;20456;-71
2023/06/18 11:17:53;;;;;;;4.50;3.33;;;768.10;1280.00;;;;;;4886293;29;20398;-74
2023/06/18 11:20:23;;;;;;;6.32;3.47;;;768.20;1305.60;;;;;;4885106;29;20036;-75
2023/06/18 11:23:00;;;;;;;4.28;3.35;;;768.10;1228.80;;;;;;4883019;29;20428;-70
2023/06/18 11:25:27;;;;;;;10.98;4.10;;;768.10;1228.80;;;;;;4888587;29;20033;-69
2023/06/18 11:27:55;;;;;;;5.10;3.58;;;768.20;1280.00;;;;;;4883207;29;20029;-69
2023/06/18 11:30:21;;;;;;;8.32;3.63;;;768.30;1331.20;;;;;;4873369;29;20029;-69
2023/06/18 11:32:47;;;;;;;4.60;3.90;;;768.40;1331.20;;;;;;4887097;29;20028;-70
2023/06/18 11:35:13;;;;;;;8.45;3.88;;;768.40;1280.00;;;;;;4886489;29;20128;-71
2023/06/18 11:37:41;;;;;;;5.00;3.90;;;768.40;1280.00;;;;;;4889198;29;20550;-70
2023/06/18 11:40:08;;;;;;;5.68;3.38;;;768.50;1254.40;;;;;;4881567;29;20045;-70
2023/06/18 11:42:45;;;;;;;4.57;3.38;;;768.60;1203.20;;;;;;4889823;29;20092;-69
2023/06/18 11:45:11;;;;;;;5.15;3.45;;;768.60;1177.60;;;;;;4885663;29;20033;-70
2023/06/18 11:47:37;;;;;;;5.10;3.83;;;768.70;1152.00;;;;;;4866487;29;20029;-70
2023/06/18 11:50:03;;;;;;;5.43;3.30;;;768.70;1152.00;;;;;;4892229;29;20028;-69
2023/06/18 11:52:30;;;;;;;4.10;3.05;;;768.80;1126.40;;;;;;4885062;29;20025;-72
2023/06/18 11:55:03;;;;;;;6.20;3.92;;;768.90;1126.40;;;;;;4885298;29;20096;-71
2023/06/18 11:57:30;;;;;;;5.72;3.83;;;768.80;1177.60;;;;;;4888006;29;20071;-72
2023/06/18 11:59:56;;;;;;;6.30;3.55;;;768.80;1126.40;;;;;;4886381;29;20440;-71
2023/06/18 12:02:24;;;;;;;4.63;3.58;;;768.80;1152.00;;;;;;4882739;29;20138;-69
2023/06/18 12:04:50;;;;;;;5.35;3.47;;;768.80;1177.60;;;;;;4872862;29;20044;-70
2023/06/18 12:07:17;;;;;;;6.28;3.63;;;768.80;1228.80;;;;;;4888201;29;20036;-70
2023/06/18 12:09:43;;;;;;;7.53;3.75;;;768.90;1228.80;;;;;;4871708;29;20080;-71
2023/06/18 12:12:39;;;;;;;4.30;3.33;;;793.70;1203.20;;;;;;4886267;29;20040;-70
2023/06/18 12:15:37;;;;;;;4.63;2.90;;;793.70;1203.20;;;;;;4864711;29;20060;-71
2023/06/18 12:18:28;;;;;;;5.82;3.40;;;793.70;1203.20;;;;;;4889158;29;20048;-74
2023/06/18 12:20:55;;;;;;;7.35;3.28;;;793.70;1203.20;;;;;;4870712;29;20041;-71